sensor_id;sensor_type;location;lat;lon;timestamp;pressure;altitude;pressure_sealevel;temperature;humidity
41967;BME280;27656;53.068;8.818;2023-10-19T00:00:35;99994.00;;;8.37;100.00
41967;BME280;27656;53.068;8.818;2023-10-19T00:03:06;99990.88;;;8.33;100.00
41967;BME280;27656;53.068;8.818;2023-10-19T00:05:35;99983.28;;;8.30;100.00
41967;BME280;27656;53.068;8.818;2023-10-19T00:08:03;99981.63;;;8.21;100.00
41967;BME280;27656;53.068;8.818;2023-10-19T00:10:40;99988.38;;;8.15;100.00
41967;BME280;27656;53.068;8.818;2023-10-19T00:13:10;99983.75;;;8.09;100.00
41967;BME280;27656;53.068;8.818;2023-10-19T00:15:39;99986.91;;;8.04;100.00
41967;BME280;27656;53.068;8.818;2023-10-19T00:18:18;99980.44;;;7.99;100.00
41967;BME280;27656;53.068;8.818;2023-10-19T00:20:47;99980.78;;;7.96;100.00
41967;BME280;27656;53.068;8.818;2023-10-19T00:23:20;99974.38;;;7.90;100.00
41967;BME280;27656;53.068;8.818;2023-10-19T00:25:59;99981.88;;;7.77;100.00
41967;BME280;27656;53.068;8.818;2023-10-19T00:28:26;99972.16;;;7.69;100.00
41967;BME280;27656;53.068;8.818;2023-10-19T00:30:54;99977.78;;;7.74;100.00
41967;BME280;27656;53.068;8.818;2023-10-19T00:33:26;99966.75;;;7.71;100.00
41967;BME280;27656;53.068;8.818;2023-10-19T00:35:55;99963.56;;;7.59;100.00
41967;BME280;27656;53.068;8.818;2023-10-19T00:38:27;99955.56;;;7.60;100.00
41967;BME280;27656;53.068;8.818;2023-10-19T00:40:54;99950.16;;;7.62;100.00
41967;BME280;27656;53.068;8.818;2023-10-19T00:43:34;99952.06;;;7.52;100.00
41967;BME280;27656;53.068;8.818;2023-10-19T00:46:12;99948.28;;;7.46;100.00
41967;BME280;27656;53.068;8.818;2023-10-19T00:48:53;99937.44;;;7.49;100.00
41967;BME280;27656;53.068;8.818;2023-10-19T00:51:26;99934.63;;;7.42;100.00
41967;BME280;27656;53.068;8.818;2023-10-19T00:54:25;99932.00;;;7.42;100.00
41967;BME280;27656;53.068;8.818;2023-10-19T00:57:14;99934.75;;;7.33;100.00
41967;BME280;27656;53.068;8.818;2023-10-19T00:59:47;99932.13;;;7.33;100.00
41967;BME280;27656;53.068;8.818;2023-10-19T01:02:14;99929.03;;;7.37;100.00
41967;BME280;27656;53.068;8.818;2023-10-19T01:04:48;99925.38;;;7.30;100.00
41967;BME280;27656;53.068;8.818;2023-10-19T01:07:23;99917.16;;;7.25;100.00
41967;BME280;27656;53.068;8.818;2023-10-19T01:10:00;99912.59;;;7.27;100.00
41967;BME280;27656;53.068;8.818;2023-10-19T01:12:27;99912.13;;;7.32;100.00
41967;BME280;27656;53.068;8.818;2023-10-19T01:15:08;99901.09;;;7.28;100.00
41967;BME280;27656;53.068;8.818;2023-10-19T01:17:51;99892.25;;;7.29;100.00
41967;BME280;27656;53.068;8.818;2023-10-19T01:20:21;99892.75;;;7.33;100.00
41967;BME280;27656;53.068;8.818;2023-10-19T01:23:00;99883.56;;;7.29;100.00
41967;BME280;27656;53.068;8.818;2023-10-19T01:25:50;99891.44;;;7.29;100.00
41967;BME280;27656;53.068;8.818;2023-10-19T01:28:34;99892.72;;;7.25;100.00
41967;BME280;27656;53.068;8.818;2023-10-19T01:31:14;99891.72;;;7.26;100.00
41967;BME280;27656;53.068;8.818;2023-10-19T01:33:49;99878.13;;;7.30;100.00
41967;BME280;27656;53.068;8.818;2023-10-19T01:36:17;99876.16;;;7.32;100.00
41967;BME280;27656;53.068;8.818;2023-10-19T01:38:50;99865.53;;;7.34;100.00
41967;BME280;27656;53.068;8.818;2023-10-19T01:41:21;99854.34;;;7.32;100.00
41967;BME280;27656;53.068;8.818;2023-10-19T01:44:02;99848.41;;;7.21;100.00
41967;BME280;27656;53.068;8.818;2023-10-19T01:46:49;99849.56;;;7.19;100.00
41967;BME280;27656;53.068;8.818;2023-10-19T01:49:16;99834.91;;;7.16;100.00
41967;BME280;27656;53.068;8.818;2023-10-19T01:51:55;99831.66;;;7.14;100.00
41967;BME280;27656;53.068;8.818;2023-10-19T01:54:22;99827.91;;;7.25;100.00
41967;BME280;27656;53.068;8.818;2023-10-19T01:56:52;99831.00;;;7.20;100.00
41967;BME280;27656;53.068;8.818;2023-10-19T01:59:22;99819.50;;;7.13;100.00
41967;BME280;27656;53.068;8.818;2023-10-19T02:01:49;99814.28;;;7.21;100.00
41967;BME280;27656;53.068;8.818;2023-10-19T02:04:18;99812.63;;;7.20;100.00
41967;BME280;27656;53.068;8.818;2023-10-19T02:06:48;99800.66;;;7.18;100.00
41967;BME280;27656;53.068;8.818;2023-10-19T02:09:15;99803.41;;;7.16;100.00
41967;BME280;27656;53.068;8.818;2023-10-19T02:11:50;99792.28;;;7.14;100.00
41967;BME280;27656;53.068;8.818;2023-10-19T02:14:28;99787.34;;;7.11;100.00
41967;BME280;27656;53.068;8.818;2023-10-19T02:16:59;99782.75;;;7.05;100.00
41967;BME280;27656;53.068;8.818;2023-10-19T02:19:28;99779.13;;;7.06;100.00
41967;BME280;27656;53.068;8.818;2023-10-19T02:21:57;99784.38;;;7.06;100.00
41967;BME280;27656;53.068;8.818;2023-10-19T02:24:26;99766.81;;;7.07;100.00
41967;BME280;27656;53.068;8.818;2023-10-19T02:26:57;99751.72;;;7.09;100.00
41967;BME280;27656;53.068;8.818;2023-10-19T02:29:24;99765.66;;;7.09;100.00
41967;BME280;27656;53.068;8.818;2023-10-19T02:31:52;99768.63;;;7.06;100.00
41967;BME280;27656;53.068;8.818;2023-10-19T02:34:21;99763.22;;;7.08;100.00
41967;BME280;27656;53.068;8.818;2023-10-19T02:36:49;99757.78;;;7.09;100.00
41967;BME280;27656;53.068;8.818;2023-10-19T02:39:16;99756.84;;;7.10;100.00
41967;BME280;27656;53.068;8.818;2023-10-19T02:41:48;99759.78;;;7.15;100.00
41967;BME280;27656;53.068;8.818;2023-10-19T02:44:17;99763.56;;;7.13;100.00
41967;BME280;27656;53.068;8.818;2023-10-19T02:46:45;99763.22;;;7.08;100.00
41967;BME280;27656;53.068;8.818;2023-10-19T02:49:14;99754.69;;;7.06;100.00
41967;BME280;27656;53.068;8.818;2023-10-19T02:51:45;99752.06;;;7.06;100.00
41967;BME280;27656;53.068;8.818;2023-10-19T02:54:14;99763.72;;;7.03;100.00
41967;BME280;27656;53.068;8.818;2023-10-19T02:56:48;99764.53;;;7.12;100.00
41967;BME280;27656;53.068;8.818;2023-10-19T02:59:17;99759.28;;;7.12;100.00
41967;BME280;27656;53.068;8.818;2023-10-19T03:02:00;99759.13;;;7.05;100.00
41967;BME280;27656;53.068;8.818;2023-10-19T03:04:39;99741.72;;;7.04;100.00
41967;BME280;27656;53.068;8.818;2023-10-19T03:07:07;99743.03;;;7.00;100.00
41967;BME280;27656;53.068;8.818;2023-10-19T03:09:34;99732.38;;;7.01;100.00
41967;BME280;27656;53.068;8.818;2023-10-19T03:12:03;99740.09;;;7.03;100.00
41967;BME280;27656;53.068;8.818;2023-10-19T03:14:31;99739.59;;;7.08;100.00
41967;BME280;27656;53.068;8.818;2023-10-19T03:16:59;99739.44;;;7.09;100.00
41967;BME280;27656;53.068;8.818;2023-10-19T03:19:27;99743.53;;;7.12;100.00
41967;BME280;27656;53.068;8.818;2023-10-19T03:21:54;99733.22;;;7.10;100.00
41967;BME280;27656;53.068;8.818;2023-10-19T03:24:22;99725.00;;;7.13;100.00
41967;BME280;27656;53.068;8.818;2023-10-19T03:27:09;99721.72;;;7.11;100.00
41967;BME280;27656;53.068;8.818;2023-10-19T03:29:42;99705.31;;;7.09;100.00
41967;BME280;27656;53.068;8.818;2023-10-19T03:32:13;99688.09;;;7.07;100.00
41967;BME280;27656;53.068;8.818;2023-10-19T03:34:40;99686.78;;;7.11;100.00
41967;BME280;27656;53.068;8.818;2023-10-19T03:37:12;99678.25;;;7.09;100.00
41967;BME280;27656;53.068;8.818;2023-10-19T03:39:41;99673.34;;;7.06;100.00
41967;BME280;27656;53.068;8.818;2023-10-19T03:42:12;99673.66;;;7.11;100.00
41967;BME280;27656;53.068;8.818;2023-10-19T03:44:41;99680.88;;;7.09;100.00
41967;BME280;27656;53.068;8.818;2023-10-19T03:47:07;99688.75;;;7.00;100.00
41967;BME280;27656;53.068;8.818;2023-10-19T03:49:38;99694.66;;;7.03;100.00
41967;BME280;27656;53.068;8.818;2023-10-19T03:52:06;99702.53;;;7.03;100.00
41967;BME280;27656;53.068;8.818;2023-10-19T03:54:37;99693.47;;;6.97;100.00
41967;BME280;27656;53.068;8.818;2023-10-19T03:57:13;99690.38;;;7.01;100.00
41967;BME280;27656;53.068;8.818;2023-10-19T03:59:47;99685.78;;;6.95;100.00
41967;BME280;27656;53.068;8.818;2023-10-19T04:02:19;99678.22;;;6.92;100.00
41967;BME280;27656;53.068;8.818;2023-10-19T04:05:01;99666.28;;;6.98;100.00
41967;BME280;27656;53.068;8.818;2023-10-19T04:07:30;99665.59;;;7.04;100.00
41967;BME280;27656;53.068;8.818;2023-10-19T04:10:00;99669.22;;;7.03;100.00
41967;BME280;27656;53.068;8.818;2023-10-19T04:12:34;99685.13;;;7.01;100.00
41967;BME280;27656;53.068;8.818;2023-10-19T04:15:06;99673.97;;;6.99;100.00
41967;BME280;27656;53.068;8.818;2023-10-19T04:17:38;99664.94;;;6.94;100.00
41967;BME280;27656;53.068;8.818;2023-10-19T04:20:06;99662.47;;;6.92;100.00
41967;BME280;27656;53.068;8.818;2023-10-19T04:22:52;99658.69;;;6.95;100.00
41967;BME280;27656;53.068;8.818;2023-10-19T04:25:21;99663.31;;;6.93;100.00
41967;BME280;27656;53.068;8.818;2023-10-19T04:27:52;99658.56;;;6.96;100.00
41967;BME280;27656;53.068;8.818;2023-10-19T04:30:20;99653.47;;;6.95;100.00
41967;BME280;27656;53.068;8.818;2023-10-19T04:32:51;99647.91;;;6.98;100.00
41967;BME280;27656;53.068;8.818;2023-10-19T04:35:19;99649.34;;;6.92;100.00
41967;BME280;27656;53.068;8.818;2023-10-19T04:37:49;99652.50;;;6.96;100.00
41967;BME280;27656;53.068;8.818;2023-10-19T04:40:17;99649.38;;;7.00;100.00
41967;BME280;27656;53.068;8.818;2023-10-19T04:42:45;99648.88;;;6.97;100.00
41967;BME280;27656;53.068;8.818;2023-10-19T04:45:12;99640.03;;;6.98;100.00
41967;BME280;27656;53.068;8.818;2023-10-19T04:47:40;99642.34;;;6.93;100.00
41967;BME280;27656;53.068;8.818;2023-10-19T04:50:07;99641.00;;;6.97;100.00
41967;BME280;27656;53.068;8.818;2023-10-19T04:52:34;99638.22;;;6.98;100.00
41967;BME280;27656;53.068;8.818;2023-10-19T04:55:01;99634.78;;;6.98;100.00
41967;BME280;27656;53.068;8.818;2023-10-19T04:57:28;99645.09;;;6.99;100.00
41967;BME280;27656;53.068;8.818;2023-10-19T04:59:54;99639.19;;;6.97;100.00
41967;BME280;27656;53.068;8.818;2023-10-19T05:02:21;99641.00;;;6.97;100.00
41967;BME280;27656;53.068;8.818;2023-10-19T05:04:48;99641.00;;;6.97;100.00
41967;BME280;27656;53.068;8.818;2023-10-19T05:07:15;99636.91;;;6.94;100.00
41967;BME280;27656;53.068;8.818;2023-10-19T05:09:46;99632.63;;;7.01;100.00
41967;BME280;27656;53.068;8.818;2023-10-19T05:12:14;99645.09;;;6.99;100.00
41967;BME280;27656;53.068;8.818;2023-10-19T05:14:42;99638.22;;;6.98;100.00
41967;BME280;27656;53.068;8.818;2023-10-19T05:17:09;99644.94;;;7.01;100.00
41967;BME280;27656;53.068;8.818;2023-10-19T05:19:38;99638.69;;;7.02;100.00
41967;BME280;27656;53.068;8.818;2023-10-19T05:22:07;99641.50;;;7.00;100.00
41967;BME280;27656;53.068;8.818;2023-10-19T05:24:38;99639.53;;;7.03;100.00
41967;BME280;27656;53.068;8.818;2023-10-19T05:27:05;99643.81;;;6.95;100.00
41967;BME280;27656;53.068;8.818;2023-10-19T05:29:34;99639.53;;;6.94;100.00
41967;BME280;27656;53.068;8.818;2023-10-19T05:32:00;99642.81;;;6.96;100.00
41967;BME280;27656;53.068;8.818;2023-10-19T05:34:29;99640.84;;;6.98;100.00
41967;BME280;27656;53.068;8.818;2023-10-19T05:36:57;99640.50;;;7.01;100.00
41967;BME280;27656;53.068;8.818;2023-10-19T05:39:25;99640.69;;;7.00;100.00
41967;BME280;27656;53.068;8.818;2023-10-19T05:41:55;99647.25;;;7.04;100.00
41967;BME280;27656;53.068;8.818;2023-10-19T05:44:22;99632.97;;;6.98;100.00
41967;BME280;27656;53.068;8.818;2023-10-19T05:46:51;99635.44;;;7.00;100.00
41967;BME280;27656;53.068;8.818;2023-10-19T05:49:18;99641.19;;;7.04;100.00
41967;BME280;27656;53.068;8.818;2023-10-19T05:51:46;99640.19;;;7.05;100.00
41967;BME280;27656;53.068;8.818;2023-10-19T05:54:12;99625.91;;;6.99;100.00
41967;BME280;27656;53.068;8.818;2023-10-19T05:56:39;99628.88;;;6.96;100.00
41967;BME280;27656;53.068;8.818;2023-10-19T05:59:05;99628.06;;;6.95;100.00
41967;BME280;27656;53.068;8.818;2023-10-19T06:01:33;99625.09;;;6.98;100.00
41967;BME280;27656;53.068;8.818;2023-10-19T06:04:00;99632.81;;;6.92;100.00
41967;BME280;27656;53.068;8.818;2023-10-19T06:06:26;99639.53;;;6.94;100.00
41967;BME280;27656;53.068;8.818;2023-10-19T06:08:53;99642.47;;;6.91;100.00
41967;BME280;27656;53.068;8.818;2023-10-19T06:11:20;99632.47;;;6.87;100.00
41967;BME280;27656;53.068;8.818;2023-10-19T06:13:50;99637.06;;;6.85;100.00
41967;BME280;27656;53.068;8.818;2023-10-19T06:16:17;99641.19;;;6.95;100.00
41967;BME280;27656;53.068;8.818;2023-10-19T06:18:44;99633.47;;;6.94;100.00
41967;BME280;27656;53.068;8.818;2023-10-19T06:21:11;99632.00;;;6.91;100.00
41967;BME280;27656;53.068;8.818;2023-10-19T06:23:40;99630.31;;;6.90;100.00
41967;BME280;27656;53.068;8.818;2023-10-19T06:26:12;99639.34;;;6.88;100.00
41967;BME280;27656;53.068;8.818;2023-10-19T06:28:39;99639.53;;;6.86;100.00
41967;BME280;27656;53.068;8.818;2023-10-19T06:31:08;99630.03;;;6.93;100.00
41967;BME280;27656;53.068;8.818;2023-10-19T06:33:35;99632.81;;;6.92;100.00
41967;BME280;27656;53.068;8.818;2023-10-19T06:36:08;99637.56;;;6.88;100.00
41967;BME280;27656;53.068;8.818;2023-10-19T06:38:35;99614.44;;;6.92;100.00
41967;BME280;27656;53.068;8.818;2023-10-19T06:41:12;99621.50;;;6.91;100.00
41967;BME280;27656;53.068;8.818;2023-10-19T06:43:40;99630.69;;;6.95;100.00
41967;BME280;27656;53.068;8.818;2023-10-19T06:46:07;99635.25;;;7.01;100.00
41967;BME280;27656;53.068;8.818;2023-10-19T06:48:39;99629.06;;;7.03;100.00
41967;BME280;27656;53.068;8.818;2023-10-19T06:51:06;99625.59;;;7.02;100.00
41967;BME280;27656;53.068;8.818;2023-10-19T06:53:33;99631.50;;;7.04;100.00
41967;BME280;27656;53.068;8.818;2023-10-19T06:56:00;99631.81;;;7.09;100.00
41967;BME280;27656;53.068;8.818;2023-10-19T06:58:27;99635.44;;;7.08;100.00
41967;BME280;27656;53.068;8.818;2023-10-19T07:00:54;99639.88;;;7.08;100.00
41967;BME280;27656;53.068;8.818;2023-10-19T07:03:34;99626.91;;;7.14;100.00
41967;BME280;27656;53.068;8.818;2023-10-19T07:06:01;99624.59;;;7.11;100.00
41967;BME280;27656;53.068;8.818;2023-10-19T07:08:35;99627.25;;;7.03;100.00
41967;BME280;27656;53.068;8.818;2023-10-19T07:11:02;99621.66;;;7.06;100.00
41967;BME280;27656;53.068;8.818;2023-10-19T07:13:29;99622.97;;;7.10;100.00
41967;BME280;27656;53.068;8.818;2023-10-19T07:15:59;99614.78;;;7.05;100.00
41967;BME280;27656;53.068;8.818;2023-10-19T07:18:30;99621.66;;;7.06;100.00
41967;BME280;27656;53.068;8.818;2023-10-19T07:20:56;99621.19;;;7.03;100.00
41967;BME280;27656;53.068;8.818;2023-10-19T07:23:31;99623.47;;;7.06;100.00
41967;BME280;27656;53.068;8.818;2023-10-19T07:25:58;99626.41;;;7.11;100.00
41967;BME280;27656;53.068;8.818;2023-10-19T07:28:28;99621.16;;;7.11;100.00
41967;BME280;27656;53.068;8.818;2023-10-19T07:30:55;99619.38;;;7.19;100.00
41967;BME280;27656;53.068;8.818;2023-10-19T07:33:23;99631.50;;;7.20;100.00
41967;BME280;27656;53.068;8.818;2023-10-19T07:35:50;99623.47;;;7.22;100.00
41967;BME280;27656;53.068;8.818;2023-10-19T07:38:27;99627.41;;;7.26;100.00
41967;BME280;27656;53.068;8.818;2023-10-19T07:40:55;99624.09;;;7.32;100.00
41967;BME280;27656;53.068;8.818;2023-10-19T07:43:22;99625.75;;;7.25;100.00
41967;BME280;27656;53.068;8.818;2023-10-19T07:45:51;99632.31;;;7.29;100.00
41967;BME280;27656;53.068;8.818;2023-10-19T07:48:19;99632.00;;;7.32;100.00
41967;BME280;27656;53.068;8.818;2023-10-19T07:50:46;99628.88;;;7.37;100.00
41967;BME280;27656;53.068;8.818;2023-10-19T07:53:13;99639.03;;;7.40;100.00
41967;BME280;27656;53.068;8.818;2023-10-19T07:55:39;99633.00;;;7.31;100.00
41967;BME280;27656;53.068;8.818;2023-10-19T07:58:06;99638.06;;;7.33;100.00
41967;BME280;27656;53.068;8.818;2023-10-19T08:00:33;99635.94;;;7.36;100.00
41967;BME280;27656;53.068;8.818;2023-10-19T08:03:01;99631.50;;;7.45;100.00
41967;BME280;27656;53.068;8.818;2023-10-19T08:05:28;99644.28;;;7.40;100.00
41967;BME280;27656;53.068;8.818;2023-10-19T08:07:55;99642.13;;;7.52;100.00
41967;BME280;27656;53.068;8.818;2023-10-19T08:10:24;99648.53;;;7.49;100.00
41967;BME280;27656;53.068;8.818;2023-10-19T08:12:53;99648.38;;;7.59;100.00
41967;BME280;27656;53.068;8.818;2023-10-19T08:15:22;99643.78;;;7.61;100.00
41967;BME280;27656;53.068;8.818;2023-10-19T08:17:52;99634.41;;;7.67;100.00
41967;BME280;27656;53.068;8.818;2023-10-19T08:20:21;99645.25;;;7.72;100.00
41967;BME280;27656;53.068;8.818;2023-10-19T08:22:53;99651.31;;;7.72;100.00
41967;BME280;27656;53.068;8.818;2023-10-19T08:25:20;99641.31;;;7.68;100.00
41967;BME280;27656;53.068;8.818;2023-10-19T08:27:48;99631.44;;;7.70;100.00
41967;BME280;27656;53.068;8.818;2023-10-19T08:30:18;99626.34;;;7.76;100.00
41967;BME280;27656;53.068;8.818;2023-10-19T08:32:47;99635.56;;;7.64;100.00
41967;BME280;27656;53.068;8.818;2023-10-19T08:35:19;99627.66;;;7.72;100.00
41967;BME280;27656;53.068;8.818;2023-10-19T08:37:53;99639.19;;;7.63;100.00
41967;BME280;27656;53.068;8.818;2023-10-19T08:40:20;99634.72;;;7.72;100.00
41967;BME280;27656;53.068;8.818;2023-10-19T08:42:50;99640.00;;;7.72;100.00
41967;BME280;27656;53.068;8.818;2023-10-19T08:45:17;99643.78;;;7.69;100.00
41967;BME280;27656;53.068;8.818;2023-10-19T08:48:01;99652.78;;;7.75;100.00
41967;BME280;27656;53.068;8.818;2023-10-19T08:50:32;99646.38;;;7.77;100.00
41967;BME280;27656;53.068;8.818;2023-10-19T08:53:01;99640.47;;;7.83;100.00
41967;BME280;27656;53.068;8.818;2023-10-19T08:55:31;99633.69;;;7.89;100.00
41967;BME280;27656;53.068;8.818;2023-10-19T08:58:16;99639.09;;;7.96;100.00
41967;BME280;27656;53.068;8.818;2023-10-19T09:00:49;99638.41;;;8.02;100.00
41967;BME280;27656;53.068;8.818;2023-10-19T09:03:20;99633.66;;;8.05;100.00
41967;BME280;27656;53.068;8.818;2023-10-19T09:05:48;99634.66;;;8.04;100.00
41967;BME280;27656;53.068;8.818;2023-10-19T09:08:16;99631.88;;;7.98;100.00
41967;BME280;27656;53.068;8.818;2023-10-19T09:10:45;99635.47;;;7.97;100.00
41967;BME280;27656;53.068;8.818;2023-10-19T09:13:12;99636.13;;;7.99;100.00
41967;BME280;27656;53.068;8.818;2023-10-19T09:15:41;99637.78;;;7.92;100.00
41967;BME280;27656;53.068;8.818;2023-10-19T09:18:15;99642.59;;;7.88;100.00
41967;BME280;27656;53.068;8.818;2023-10-19T09:20:44;99638.28;;;7.95;100.00
41967;BME280;27656;53.068;8.818;2023-10-19T09:23:23;99638.94;;;7.89;100.00
41967;BME280;27656;53.068;8.818;2023-10-19T09:25:50;99636.47;;;7.96;100.00
41967;BME280;27656;53.068;8.818;2023-10-19T09:28:20;99639.56;;;7.99;100.00
41967;BME280;27656;53.068;8.818;2023-10-19T09:30:47;99629.56;;;8.03;100.00
41967;BME280;27656;53.068;8.818;2023-10-19T09:33:19;99639.91;;;8.04;100.00
41967;BME280;27656;53.068;8.818;2023-10-19T09:35:48;99640.34;;;8.16;100.00
41967;BME280;27656;53.068;8.818;2023-10-19T09:38:17;99632.13;;;8.19;100.00
41967;BME280;27656;53.068;8.818;2023-10-19T09:40:55;99634.38;;;8.31;100.00
41967;BME280;27656;53.068;8.818;2023-10-19T09:43:37;99633.88;;;8.35;100.00
41967;BME280;27656;53.068;8.818;2023-10-19T09:46:09;99638.13;;;8.36;100.00
41967;BME280;27656;53.068;8.818;2023-10-19T09:48:42;99643.09;;;8.31;100.00
41967;BME280;27656;53.068;8.818;2023-10-19T09:51:12;99642.59;;;8.27;100.00
41967;BME280;27656;53.068;8.818;2023-10-19T09:53:46;99636.06;;;8.23;100.00
41967;BME280;27656;53.068;8.818;2023-10-19T09:56:47;99636.34;;;8.28;100.00
41967;BME280;27656;53.068;8.818;2023-10-19T09:59:33;99634.69;;;8.36;100.00
41967;BME280;27656;53.068;8.818;2023-10-19T10:02:09;99636.16;;;8.30;100.00
41967;BME280;27656;53.068;8.818;2023-10-19T10:04:42;99631.91;;;8.29;100.00
41967;BME280;27656;53.068;8.818;2023-10-19T10:07:12;99630.22;;;8.36;100.00
41967;BME280;27656;53.068;8.818;2023-10-19T10:09:51;99631.25;;;8.27;100.00
41967;BME280;27656;53.068;8.818;2023-10-19T10:12:25;99626.50;;;8.31;100.00
41967;BME280;27656;53.068;8.818;2023-10-19T10:17:27;99612.16;;;8.41;100.00
41967;BME280;27656;53.068;8.818;2023-10-19T10:20:04;99626.59;;;8.37;100.00
41967;BME280;27656;53.068;8.818;2023-10-19T10:23:20;99621.53;;;8.36;100.00
41967;BME280;27656;53.068;8.818;2023-10-19T10:25:58;99608.53;;;8.34;100.00
41967;BME280;27656;53.068;8.818;2023-10-19T10:28:25;99612.81;;;8.35;100.00
41967;BME280;27656;53.068;8.818;2023-10-19T10:31:19;99603.63;;;8.31;100.00
41967;BME280;27656;53.068;8.818;2023-10-19T10:33:51;99607.06;;;8.32;100.00
41967;BME280;27656;53.068;8.818;2023-10-19T10:36:21;99608.09;;;8.31;100.00
41967;BME280;27656;53.068;8.818;2023-10-19T10:38:49;99605.09;;;8.34;100.00
41967;BME280;27656;53.068;8.818;2023-10-19T10:41:23;99601.97;;;8.38;100.00
41967;BME280;27656;53.068;8.818;2023-10-19T10:43:55;99594.22;;;8.45;100.00
41967;BME280;27656;53.068;8.818;2023-10-19T10:46:23;99600.25;;;8.54;100.00
41967;BME280;27656;53.068;8.818;2023-10-19T10:48:51;99596.13;;;8.59;100.00
41967;BME280;27656;53.068;8.818;2023-10-19T10:51:19;99591.28;;;8.71;100.00
41967;BME280;27656;53.068;8.818;2023-10-19T10:53:53;99594.88;;;8.70;100.00
41967;BME280;27656;53.068;8.818;2023-10-19T10:56:22;99593.47;;;8.59;100.00
41967;BME280;27656;53.068;8.818;2023-10-19T10:58:51;99595.09;;;8.60;100.00
41967;BME280;27656;53.068;8.818;2023-10-19T11:01:31;99580.38;;;8.51;100.00
41967;BME280;27656;53.068;8.818;2023-10-19T11:04:08;99586.78;;;8.48;100.00
41967;BME280;27656;53.068;8.818;2023-10-19T11:06:52;99586.63;;;8.50;100.00
41967;BME280;27656;53.068;8.818;2023-10-19T11:09:21;99578.75;;;8.50;100.00
41967;BME280;27656;53.068;8.818;2023-10-19T11:11:48;99578.81;;;8.65;100.00
41967;BME280;27656;53.068;8.818;2023-10-19T11:14:21;99577.81;;;8.89;100.00
41967;BME280;27656;53.068;8.818;2023-10-19T11:16:51;99585.13;;;9.02;100.00
41967;BME280;27656;53.068;8.818;2023-10-19T11:19:18;99592.25;;;8.93;100.00
41967;BME280;27656;53.068;8.818;2023-10-19T11:21:54;99585.28;;;8.77;100.00
41967;BME280;27656;53.068;8.818;2023-10-19T11:24:26;99589.09;;;8.75;100.00
41967;BME280;27656;53.068;8.818;2023-10-19T11:26:53;99589.63;;;8.70;100.00
41967;BME280;27656;53.068;8.818;2023-10-19T11:29:21;99600.78;;;8.72;100.00
41967;BME280;27656;53.068;8.818;2023-10-19T11:31:58;99608.69;;;8.72;100.00
41967;BME280;27656;53.068;8.818;2023-10-19T11:34:27;99614.75;;;8.73;100.00
41967;BME280;27656;53.068;8.818;2023-10-19T11:36:57;99606.53;;;8.76;100.00
41967;BME280;27656;53.068;8.818;2023-10-19T11:39:26;99604.75;;;8.68;100.00
41967;BME280;27656;53.068;8.818;2023-10-19T11:41:53;99604.53;;;8.55;100.00
41967;BME280;27656;53.068;8.818;2023-10-19T11:44:20;99605.03;;;8.50;100.00
41967;BME280;27656;53.068;8.818;2023-10-19T11:46:47;99611.94;;;8.51;100.00
41967;BME280;27656;53.068;8.818;2023-10-19T11:49:16;99612.97;;;8.42;100.00
41967;BME280;27656;53.068;8.818;2023-10-19T11:51:43;99599.34;;;8.30;100.00
41967;BME280;27656;53.068;8.818;2023-10-19T11:54:10;99600.19;;;8.31;100.00
41967;BME280;27656;53.068;8.818;2023-10-19T11:56:36;99611.00;;;8.36;100.00
41967;BME280;27656;53.068;8.818;2023-10-19T11:59:03;99610.38;;;8.25;100.00
41967;BME280;27656;53.068;8.818;2023-10-19T12:01:30;99612.25;;;8.17;100.00
41967;BME280;27656;53.068;8.818;2023-10-19T12:03:56;99601.09;;;8.15;100.00
41967;BME280;27656;53.068;8.818;2023-10-19T12:06:23;99606.50;;;8.13;100.00
41967;BME280;27656;53.068;8.818;2023-10-19T12:08:50;99601.28;;;8.05;100.00
41967;BME280;27656;53.068;8.818;2023-10-19T12:11:17;99597.97;;;8.11;100.00
41967;BME280;27656;53.068;8.818;2023-10-19T12:13:48;99586.63;;;8.11;100.00
41967;BME280;27656;53.068;8.818;2023-10-19T12:16:16;99592.69;;;8.11;100.00
41967;BME280;27656;53.068;8.818;2023-10-19T12:18:44;99582.69;;;8.15;100.00
41967;BME280;27656;53.068;8.818;2023-10-19T12:21:10;99588.28;;;8.12;100.00
41967;BME280;27656;53.068;8.818;2023-10-19T12:23:42;99589.88;;;8.21;100.00
41967;BME280;27656;53.068;8.818;2023-10-19T12:26:18;99586.72;;;8.25;100.00
41967;BME280;27656;53.068;8.818;2023-10-19T12:28:46;99591.47;;;8.30;100.00
41967;BME280;27656;53.068;8.818;2023-10-19T12:31:15;99601.91;;;8.15;100.00
41967;BME280;27656;53.068;8.818;2023-10-19T12:33:45;99594.81;;;8.16;100.00
41967;BME280;27656;53.068;8.818;2023-10-19T12:36:12;99596.03;;;8.05;100.00
41967;BME280;27656;53.068;8.818;2023-10-19T12:39:05;99595.19;;;8.13;100.00
41967;BME280;27656;53.068;8.818;2023-10-19T12:41:34;99595.38;;;8.03;100.00
41967;BME280;27656;53.068;8.818;2023-10-19T12:44:01;99591.28;;;8.00;100.00
41967;BME280;27656;53.068;8.818;2023-10-19T12:46:34;99588.81;;;7.99;100.00
41967;BME280;27656;53.068;8.818;2023-10-19T12:49:06;99582.06;;;8.04;100.00
41967;BME280;27656;53.068;8.818;2023-10-19T12:51:39;99577.78;;;8.03;100.00
41967;BME280;27656;53.068;8.818;2023-10-19T12:54:08;99589.31;;;7.94;100.00
41967;BME280;27656;53.068;8.818;2023-10-19T12:56:38;99602.16;;;7.97;100.00
41967;BME280;27656;53.068;8.818;2023-10-19T12:59:05;99589.03;;;7.89;100.00
41967;BME280;27656;53.068;8.818;2023-10-19T13:01:34;99584.38;;;7.99;100.00
41967;BME280;27656;53.068;8.818;2023-10-19T13:04:02;99599.38;;;7.91;100.00
41967;BME280;27656;53.068;8.818;2023-10-19T13:06:40;99590.97;;;7.95;100.00
41967;BME280;27656;53.068;8.818;2023-10-19T13:09:07;99592.91;;;8.01;100.00
41967;BME280;27656;53.068;8.818;2023-10-19T13:11:35;99593.91;;;8.00;100.00
41967;BME280;27656;53.068;8.818;2023-10-19T13:14:02;99600.16;;;7.99;100.00
41967;BME280;27656;53.068;8.818;2023-10-19T13:16:32;99602.91;;;8.06;100.00
41967;BME280;27656;53.068;8.818;2023-10-19T13:18:59;99606.56;;;7.97;100.00
41967;BME280;27656;53.068;8.818;2023-10-19T13:21:35;99604.25;;;8.02;100.00